Wan I Gan, Montana
Current Conditions -  °F | °C
As of 12:53 PM on Thursday 23 Oct 2014 (Local Time) from KLVM Reporting Station
Clear Clear  
Wind Chill: 66°   Ceiling: Unl
Heat Index: 66°   Visibility: 10mi
Dew Point: 27°   Wind: 36mph
Humidity: 23%   Direction: 220°SW
Pressure: 29.91"   Gusts: 44mph
Location:  45.4304°N, 110.521°W
Report Text: KLVM 231853Z AUTO 22031G38KT 10SM CLR 19/M03 A2991 RMK AO2 PK WND 22038/1853 SLP101 T01891028
Loading
Personal Weather Stations






























Interactive Weather Map
Tropical Storm Tracking
New forecast layout! Learn more

10-Day Weather Forecast

Advertisements
Track Severe Weather on mobile